createdAt,value
2017-07-03T12:25:00.355Z,27.34
2017-07-03T12:25:40.881Z,27.24
2017-07-03T12:26:21.428Z,27.27
2017-07-03T12:27:01.962Z,27.09
2017-07-03T12:27:42.505Z,26.8
2017-07-03T12:28:23.079Z,26.48
2017-07-03T12:29:03.612Z,26.23
2017-07-03T12:29:44.147Z,25.91
2017-07-03T12:30:24.687Z,25.62
2017-07-03T12:31:05.234Z,25.32
2017-07-03T12:31:45.770Z,25.15
2017-07-03T12:32:26.306Z,25.02
2017-07-03T12:33:06.851Z,25
2017-07-03T12:33:47.381Z,25.02
2017-07-03T12:34:27.929Z,25
2017-07-03T12:35:08.480Z,25.14
2017-07-03T12:35:49.024Z,25.51
2017-07-03T12:36:29.571Z,25.9
2017-07-03T12:37:10.106Z,26.13
2017-07-03T12:37:50.656Z,26.4
2017-07-03T12:38:31.193Z,26.58
2017-07-03T12:39:11.721Z,26.6
2017-07-03T12:39:52.261Z,26.45
2017-07-03T12:40:32.792Z,26.55
2017-07-03T12:41:13.327Z,26.55
2017-07-03T12:41:53.867Z,26.33
2017-07-03T12:42:34.399Z,26.21
2017-07-03T12:43:14.945Z,26.21
2017-07-03T12:43:55.505Z,26.18
2017-07-03T12:44:36.059Z,26.18
2017-07-03T12:45:16.598Z,26.23
2017-07-03T12:45:57.158Z,26.44
2017-07-03T12:46:37.717Z,26.54
2017-07-03T12:47:18.219Z,26.73
2017-07-03T12:47:58.768Z,27
2017-07-03T12:48:39.335Z,27.12
2017-07-03T12:49:19.848Z,26.99
2017-07-03T12:50:00.406Z,26.92
2017-07-03T12:50:40.949Z,26.82
2017-07-03T12:51:21.491Z,26.82
2017-07-03T12:52:02.039Z,26.84
2017-07-03T12:52:42.586Z,26.8
2017-07-03T12:53:23.153Z,26.58
2017-07-03T12:54:03.724Z,26.44
2017-07-03T12:54:44.231Z,26.3
2017-07-03T12:55:24.767Z,26.3
2017-07-03T12:56:05.300Z,26.23
2017-07-03T12:56:45.849Z,26.1
2017-07-03T12:57:26.377Z,25.9
2017-07-03T12:58:06.913Z,25.8
2017-07-03T12:58:47.458Z,25.67
2017-07-03T12:59:28.006Z,25.57
2017-07-03T13:00:08.557Z,25.52
2017-07-03T13:00:49.114Z,25.6
2017-07-03T13:01:29.660Z,25.52
2017-07-03T13:02:10.213Z,25.55
2017-07-03T13:02:50.733Z,25.58
2017-07-03T13:03:31.272Z,25.6
2017-07-03T13:04:11.821Z,25.61
2017-07-03T13:04:52.361Z,25.57
2017-07-03T13:05:32.891Z,25.6
2017-07-03T13:06:13.439Z,25.76
2017-07-03T13:06:53.980Z,25.73
2017-07-03T13:07:34.518Z,25.75
2017-07-03T13:08:15.067Z,25.79
2017-07-03T13:08:55.617Z,25.82
2017-07-03T13:09:36.157Z,25.72
2017-07-03T13:10:16.702Z,25.57
2017-07-03T13:10:57.249Z,25.38
2017-07-03T13:11:37.787Z,25.21
2017-07-03T13:12:18.327Z,25.17
2017-07-03T13:12:58.876Z,24.95
2017-07-03T13:13:39.422Z,24.95
2017-07-03T13:14:19.954Z,24.84
2017-07-03T13:15:00.496Z,24.84
2017-07-03T13:15:41.044Z,24.83
2017-07-03T13:16:21.583Z,24.85
2017-07-03T13:17:02.128Z,24.87
2017-07-03T13:17:42.649Z,24.98
2017-07-03T13:18:23.196Z,25.13
2017-07-03T13:19:03.757Z,25.33
2017-07-03T13:19:44.307Z,25.47
2017-07-03T13:20:24.848Z,25.64
2017-07-03T13:21:05.393Z,25.82
2017-07-03T13:21:45.930Z,26.07
2017-07-03T13:22:26.468Z,26.12
2017-07-03T13:23:06.999Z,26.23
2017-07-03T13:23:47.536Z,26.3
2017-07-03T13:24:28.090Z,26.43
2017-07-03T13:25:08.633Z,26.47
2017-07-03T13:25:49.174Z,26.62
2017-07-03T13:26:29.735Z,26.6
2017-07-03T13:27:10.285Z,26.6
2017-07-03T13:27:50.809Z,26.63
2017-07-03T13:28:31.354Z,26.44
2017-07-03T13:29:11.889Z,26.43
2017-07-03T13:29:52.418Z,26.32
2017-07-03T13:30:32.962Z,26.2
2017-07-03T13:31:13.494Z,26.09
2017-07-03T13:31:54.041Z,26.01
2017-07-03T13:32:34.586Z,25.97
2017-07-03T13:33:15.136Z,25.82
2017-07-03T13:33:55.680Z,25.75
2017-07-03T13:34:36.229Z,25.64
2017-07-03T13:35:16.781Z,25.72
2017-07-03T13:35:57.338Z,25.73
2017-07-03T13:36:37.887Z,25.75
2017-07-03T13:37:18.433Z,25.77
2017-07-03T13:37:58.984Z,25.76
2017-07-03T13:38:39.539Z,25.67
2017-07-03T13:39:20.108Z,25.55
2017-07-03T13:40:00.639Z,25.54
2017-07-03T13:40:41.193Z,25.52
2017-07-03T13:41:21.772Z,25.54
2017-07-03T13:42:02.307Z,25.45
2017-07-03T13:42:42.841Z,25.5
2017-07-03T13:43:23.391Z,25.46
2017-07-03T13:44:03.944Z,25.51
2017-07-03T13:44:44.497Z,25.5
2017-07-03T13:45:25.045Z,25.43
2017-07-03T13:46:05.588Z,25.5
2017-07-03T13:46:46.153Z,25.45
2017-07-03T13:47:26.678Z,25.45
2017-07-03T13:48:07.187Z,25.43
2017-07-03T13:48:47.737Z,25.36
2017-07-03T13:49:28.274Z,25.35
2017-07-03T13:50:08.828Z,25.21
2017-07-03T13:50:49.384Z,25.23
2017-07-03T13:51:29.934Z,25.24
2017-07-03T13:52:10.467Z,25.38
2017-07-03T13:52:51.014Z,25.46
2017-07-03T13:53:31.569Z,25.52
2017-07-03T13:54:12.102Z,25.47
2017-07-03T13:54:52.656Z,25.52
2017-07-03T13:55:33.213Z,25.45
2017-07-03T13:56:13.751Z,25.43
2017-07-03T13:56:54.299Z,25.43
2017-07-03T13:57:34.851Z,25.39
2017-07-03T13:58:15.394Z,25.38
2017-07-03T13:58:55.941Z,25.24
2017-07-03T13:59:36.471Z,25.24
2017-07-03T14:00:17.016Z,25.2
2017-07-03T14:00:57.560Z,25.25
2017-07-03T14:01:38.084Z,25.14
2017-07-03T14:02:18.648Z,25.15
2017-07-03T14:02:59.178Z,25.18
2017-07-03T14:03:39.742Z,25.18
2017-07-03T14:04:20.310Z,25.17
2017-07-03T14:05:00.832Z,25.33
2017-07-03T14:05:41.379Z,25.36
2017-07-03T14:06:21.932Z,25.43
2017-07-03T14:07:02.475Z,25.55
2017-07-03T14:07:43.020Z,25.64
2017-07-03T14:08:23.599Z,25.7
2017-07-03T14:09:04.115Z,25.64
2017-07-03T14:09:44.667Z,25.72
2017-07-03T14:10:25.252Z,25.64
2017-07-03T14:11:05.784Z,25.58
2017-07-03T14:11:46.328Z,25.57
2017-07-03T14:12:26.870Z,25.62
2017-07-03T14:13:07.418Z,25.57
2017-07-03T14:13:47.970Z,25.54
2017-07-03T14:14:28.519Z,25.58
2017-07-03T14:15:09.072Z,25.54
2017-07-03T14:15:49.622Z,25.52
2017-07-03T14:16:30.171Z,25.52
2017-07-03T14:17:10.714Z,25.54
2017-07-03T14:17:51.260Z,25.62
2017-07-03T14:18:31.813Z,25.6
2017-07-03T14:19:12.361Z,25.57
2017-07-03T14:19:52.912Z,25.61
2017-07-03T14:20:33.463Z,25.61
2017-07-03T14:21:14.010Z,25.57
2017-07-03T14:21:54.550Z,25.61
2017-07-03T14:22:35.076Z,25.62
2017-07-03T14:23:15.622Z,25.61
2017-07-03T14:23:56.166Z,25.69
2017-07-03T14:24:36.716Z,25.8
2017-07-03T14:25:17.263Z,25.82
2017-07-03T14:25:57.804Z,25.83
2017-07-03T14:26:38.362Z,25.72
2017-07-03T14:27:18.911Z,25.82
2017-07-03T14:27:59.458Z,25.9
2017-07-03T14:28:40.000Z,25.94
2017-07-03T14:29:20.548Z,25.9
2017-07-03T14:30:01.109Z,25.98
2017-07-03T14:30:41.655Z,26.02
2017-07-03T14:31:22.200Z,26.01
2017-07-03T14:32:02.749Z,26.06
2017-07-03T14:32:43.297Z,25.98
2017-07-03T14:33:23.856Z,26.06
2017-07-03T14:34:04.405Z,26.06
2017-07-03T14:34:44.956Z,25.98
2017-07-03T14:35:25.507Z,25.8
2017-07-03T14:36:06.055Z,25.83
2017-07-03T14:36:46.605Z,25.75
2017-07-03T14:37:27.157Z,25.77
2017-07-03T14:38:07.702Z,25.67
2017-07-03T14:38:48.254Z,25.72
2017-07-03T14:39:28.801Z,25.67
2017-07-03T14:40:09.358Z,25.61
2017-07-03T14:40:49.894Z,25.58
2017-07-03T14:41:30.439Z,25.47
2017-07-03T14:42:10.988Z,25.43
2017-07-03T14:42:51.541Z,25.38
2017-07-03T14:43:32.090Z,25.35
2017-07-03T14:44:12.639Z,25.36
2017-07-03T14:44:53.184Z,25.27
2017-07-03T14:45:33.728Z,25.3
2017-07-03T14:46:14.308Z,25.2
2017-07-03T14:46:54.849Z,25.03
2017-07-03T14:47:35.397Z,24.95
2017-07-03T14:48:15.949Z,25.09
2017-07-03T14:48:56.498Z,24.99
2017-07-03T14:49:37.048Z,24.91
2017-07-03T14:50:17.597Z,24.95
2017-07-03T14:50:58.149Z,24.87
2017-07-03T14:51:38.696Z,24.8
2017-07-03T14:52:19.244Z,24.9
2017-07-03T14:52:59.788Z,24.77
2017-07-03T14:53:40.333Z,24.87
2017-07-03T14:54:20.876Z,24.83
2017-07-03T14:55:01.415Z,24.71
2017-07-03T14:55:41.946Z,24.76
2017-07-03T14:56:22.505Z,24.73
2017-07-03T14:57:03.052Z,24.73
2017-07-03T14:57:43.597Z,24.69
2017-07-03T14:58:24.149Z,24.68
2017-07-03T14:59:04.691Z,24.8
2017-07-03T14:59:45.235Z,24.67
2017-07-03T15:00:25.785Z,24.71
2017-07-03T15:01:06.338Z,24.71
2017-07-03T15:01:46.881Z,24.73
2017-07-03T15:02:27.430Z,24.8
2017-07-03T15:03:07.981Z,24.85
2017-07-03T15:03:48.532Z,24.95
2017-07-03T15:04:29.072Z,24.96
2017-07-03T15:05:09.618Z,24.96
2017-07-03T15:05:50.263Z,25.05
2017-07-03T15:06:30.755Z,25.15
2017-07-03T15:07:11.309Z,25.15
2017-07-03T15:07:51.851Z,25.21
2017-07-03T15:08:32.401Z,25.27
2017-07-03T15:09:12.949Z,25.36
2017-07-03T15:09:53.504Z,25.21
2017-07-03T15:10:34.050Z,25.2
2017-07-03T15:11:14.615Z,25.2
2017-07-03T15:11:55.157Z,25.1
2017-07-03T15:12:35.708Z,25.15
2017-07-03T15:13:16.260Z,25.1
2017-07-03T15:13:56.808Z,25.06
2017-07-03T15:14:37.359Z,25.13
2017-07-03T15:15:17.918Z,25.05
2017-07-03T15:15:58.624Z,25.1
2017-07-03T15:16:39.146Z,25.17
2017-07-03T15:17:19.690Z,25.05
2017-07-03T15:18:00.264Z,25.06
2017-07-03T15:18:40.801Z,25.14
2017-07-03T15:19:21.350Z,25.03
2017-07-03T15:20:01.880Z,25.09
2017-07-03T15:20:42.427Z,24.98
2017-07-03T15:21:23.000Z,25.03
2017-07-03T15:22:03.545Z,24.88
2017-07-03T15:22:44.158Z,24.85
2017-07-03T15:23:24.666Z,24.88
2017-07-03T15:24:05.222Z,24.8
2017-07-03T15:24:45.756Z,24.73
2017-07-03T15:25:26.306Z,24.69
2017-07-03T15:26:06.847Z,24.55
2017-07-03T15:26:47.401Z,24.46
2017-07-03T15:27:27.939Z,24.46
2017-07-03T15:28:08.503Z,24.27
2017-07-03T15:28:49.051Z,24.25
2017-07-03T15:29:29.597Z,24.16
2017-07-03T15:30:10.193Z,24.22
2017-07-03T15:30:50.683Z,24.24
2017-07-03T15:31:31.230Z,24.16
2017-07-03T15:32:11.822Z,24.18
2017-07-03T15:32:52.338Z,24.15
2017-07-03T15:33:32.898Z,24.12
2017-07-03T15:34:13.455Z,24.16
2017-07-03T15:34:53.991Z,24.1
2017-07-03T15:35:34.531Z,24.24
2017-07-03T15:36:15.078Z,24.15
2017-07-03T15:36:55.622Z,24.15
2017-07-03T15:37:36.165Z,24.16
2017-07-03T15:38:16.705Z,24.15
2017-07-03T15:38:57.253Z,24.2
2017-07-03T15:39:37.836Z,24.22
2017-07-03T15:40:18.350Z,24.12
2017-07-03T15:40:58.894Z,24.13
2017-07-03T15:41:39.439Z,24.12
2017-07-03T15:42:20.022Z,24.16
2017-07-03T15:43:00.596Z,24.15
2017-07-03T15:43:41.142Z,24.12
2017-07-03T15:44:21.682Z,24.15
2017-07-03T15:45:02.231Z,24.24
2017-07-03T15:45:42.779Z,24.16
2017-07-03T15:46:23.350Z,24.27
2017-07-03T15:47:03.953Z,24.27
2017-07-03T15:47:44.646Z,24.34
2017-07-03T15:48:25.240Z,24.34
2017-07-03T15:49:05.799Z,24.42
2017-07-03T15:49:46.347Z,24.43
2017-07-03T15:50:26.901Z,24.43
2017-07-03T15:51:07.540Z,24.39
2017-07-03T15:51:48.086Z,24.42
2017-07-03T15:52:28.778Z,24.42
2017-07-03T15:53:09.362Z,24.4
2017-07-03T15:53:49.904Z,24.35
2017-07-03T15:54:30.440Z,24.27
2017-07-03T15:55:11.035Z,24.25
2017-07-03T15:55:51.627Z,24.25
2017-07-03T15:56:32.243Z,24.15
2017-07-03T15:57:12.775Z,24.21
2017-07-03T15:57:53.329Z,24.22
2017-07-03T15:58:33.860Z,24.2
2017-07-03T15:59:14.398Z,24.18
2017-07-03T15:59:55.033Z,24.16
2017-07-03T16:00:35.603Z,24.3
2017-07-03T16:01:16.153Z,24.16
2017-07-03T16:01:56.743Z,24.06
2017-07-03T16:02:37.361Z,24.15
2017-07-03T16:03:17.958Z,24.03
2017-07-03T16:03:58.513Z,24.06
2017-07-03T16:04:39.080Z,23.95
2017-07-03T16:05:19.614Z,23.91
2017-07-03T16:06:00.317Z,23.87
2017-07-03T16:06:40.981Z,23.83
2017-07-03T16:07:21.597Z,23.72
2017-07-03T16:08:02.188Z,23.75
2017-07-03T16:08:42.736Z,23.63
2017-07-03T16:09:23.334Z,23.69
2017-07-03T16:10:03.891Z,23.61
2017-07-03T16:10:45.064Z,23.61
2017-07-03T16:11:25.913Z,23.65
2017-07-03T16:12:06.514Z,23.61
2017-07-03T16:12:47.920Z,23.65
2017-07-03T16:13:28.491Z,23.58
2017-07-03T16:14:09.007Z,23.61
2017-07-03T16:14:49.632Z,23.6
2017-07-03T16:15:30.194Z,23.68
2017-07-03T16:16:10.739Z,23.65
2017-07-03T16:16:51.343Z,23.58
2017-07-03T16:17:31.890Z,23.61
2017-07-03T16:18:12.643Z,23.7
2017-07-03T16:18:53.471Z,23.72
2017-07-03T16:19:34.021Z,23.79
2017-07-03T16:20:14.575Z,23.76
2017-07-03T16:20:55.177Z,23.76
2017-07-03T16:21:35.657Z,23.85
2017-07-03T16:22:16.170Z,23.88
2017-07-03T16:22:57.248Z,23.94
2017-07-03T16:23:37.786Z,23.94
2017-07-03T16:24:18.336Z,23.97
2017-07-03T16:24:58.917Z,23.94
2017-07-03T16:25:39.586Z,23.95
2017-07-03T16:26:20.232Z,24
2017-07-03T16:27:01.157Z,24.05
2017-07-03T16:27:41.805Z,24.06
2017-07-03T16:28:22.349Z,24.12
2017-07-03T16:29:02.892Z,24.1
2017-07-03T16:29:43.516Z,24.2
2017-07-03T16:30:24.046Z,24.12
2017-07-03T16:31:04.641Z,24.21
2017-07-03T16:31:45.255Z,24.22
2017-07-03T16:32:25.864Z,24.2
2017-07-03T16:33:06.470Z,24.15
2017-07-03T16:33:47.015Z,24.16
2017-07-03T16:34:27.620Z,24.02
2017-07-03T16:35:08.149Z,23.95
2017-07-03T16:35:48.691Z,23.95
2017-07-03T16:36:29.238Z,23.9
2017-07-03T16:37:09.790Z,23.95
2017-07-03T16:37:50.336Z,23.93
2017-07-03T16:38:30.885Z,23.9
2017-07-03T16:39:11.434Z,23.93
2017-07-03T16:39:51.979Z,23.98
2017-07-03T16:40:32.510Z,24.05
2017-07-03T16:41:13.054Z,23.97
2017-07-03T16:41:53.612Z,24.05
2017-07-03T16:42:34.181Z,24.15
2017-07-03T16:43:14.725Z,24.16
2017-07-03T16:43:55.275Z,24.2
2017-07-03T16:44:35.824Z,24.09
2017-07-03T16:45:16.362Z,24.18
2017-07-03T16:45:56.917Z,24.21
2017-07-03T16:46:37.480Z,24.08
2017-07-03T16:47:18.019Z,24.1
2017-07-03T16:47:58.570Z,24.08
2017-07-03T16:48:39.112Z,23.98
2017-07-03T16:49:19.652Z,24.06
2017-07-03T16:50:00.192Z,24.1
2017-07-03T16:50:40.727Z,23.98
2017-07-03T16:51:21.284Z,23.98
2017-07-03T16:52:01.824Z,23.91
2017-07-03T16:52:42.389Z,23.95
2017-07-03T16:53:22.935Z,23.93
2017-07-03T16:54:03.453Z,23.9
2017-07-03T16:54:44.014Z,23.87
2017-07-03T16:55:24.559Z,23.76
2017-07-03T16:56:05.111Z,23.76
2017-07-03T16:56:45.659Z,23.63
2017-07-03T16:57:26.208Z,23.61
2017-07-03T16:58:06.750Z,23.6
2017-07-03T16:58:47.303Z,23.6
2017-07-03T16:59:27.841Z,23.66
2017-07-03T17:00:08.400Z,23.63
2017-07-03T17:00:48.935Z,23.61
2017-07-03T17:01:29.532Z,23.63
2017-07-03T17:02:10.074Z,23.6
2017-07-03T17:02:50.613Z,23.65
2017-07-03T17:03:31.163Z,23.63
2017-07-03T17:04:11.704Z,23.6
2017-07-03T17:04:52.277Z,23.54
2017-07-03T17:05:32.830Z,23.58
2017-07-03T17:06:13.375Z,23.54
2017-07-03T17:06:53.965Z,23.54
2017-07-03T17:07:34.507Z,23.43
2017-07-03T17:08:15.161Z,23.51
2017-07-03T17:08:56.060Z,23.5
2017-07-03T17:09:36.999Z,23.43
2017-07-03T17:10:17.745Z,23.47
2017-07-03T17:10:58.279Z,23.51
2017-07-03T17:11:38.819Z,23.57
2017-07-03T17:12:19.350Z,23.55
2017-07-03T17:12:59.927Z,23.58
2017-07-03T17:13:40.457Z,23.61
2017-07-03T17:14:21.010Z,23.55
2017-07-03T17:15:01.567Z,23.63
2017-07-03T17:15:42.092Z,23.5
2017-07-03T17:16:22.659Z,23.5
2017-07-03T17:17:03.169Z,23.51
2017-07-03T17:17:43.686Z,23.61
2017-07-03T17:18:24.210Z,23.57
2017-07-03T17:19:04.739Z,23.54
2017-07-03T17:19:45.336Z,23.53
2017-07-03T17:20:25.855Z,23.51
2017-07-03T17:21:06.409Z,23.53
2017-07-03T17:21:46.923Z,23.57
2017-07-03T17:22:27.441Z,23.51
2017-07-03T17:23:07.957Z,23.55
2017-07-03T17:23:48.494Z,23.48
2017-07-03T17:24:29.046Z,23.48
2017-07-03T17:25:09.561Z,23.53
2017-07-03T17:25:50.043Z,23.48
2017-07-03T17:26:30.564Z,23.48
2017-07-03T17:27:11.084Z,23.53
2017-07-03T17:27:51.620Z,23.47
2017-07-03T17:28:32.171Z,23.48
2017-07-03T17:29:12.718Z,23.47
2017-07-03T17:29:53.283Z,23.48
2017-07-03T17:30:33.853Z,23.47
2017-07-03T17:31:14.350Z,23.42
2017-07-03T17:31:54.861Z,23.48
2017-07-03T17:32:35.386Z,23.47
2017-07-03T17:33:16.004Z,23.48
2017-07-03T17:33:56.578Z,23.39
2017-07-03T17:34:37.131Z,23.48
2017-07-03T17:35:17.681Z,23.46
2017-07-03T17:35:58.235Z,23.5
2017-07-03T17:36:38.772Z,23.47
2017-07-03T17:37:19.314Z,23.5
2017-07-03T17:37:59.856Z,23.47
2017-07-03T17:38:40.395Z,23.54
2017-07-03T17:39:20.923Z,23.51
2017-07-03T17:40:01.466Z,23.57
2017-07-03T17:40:42.011Z,23.58
2017-07-03T17:41:22.535Z,23.55
2017-07-03T17:42:03.090Z,23.57
2017-07-03T17:42:43.615Z,23.61
2017-07-03T17:43:24.193Z,23.6
2017-07-03T17:44:04.734Z,23.6
2017-07-03T17:44:45.294Z,23.53
2017-07-03T17:45:25.842Z,23.65
2017-07-03T17:46:06.397Z,23.61
2017-07-03T17:46:47.055Z,23.63
2017-07-03T17:47:27.585Z,23.6
2017-07-03T17:48:08.128Z,23.57
2017-07-03T17:48:48.674Z,23.65
2017-07-03T17:49:29.225Z,23.61
2017-07-03T17:50:09.779Z,23.61
2017-07-03T17:50:50.326Z,23.65
2017-07-03T17:51:30.876Z,23.7
2017-07-03T17:52:11.424Z,23.73
2017-07-03T17:52:51.975Z,23.69
2017-07-03T17:53:32.525Z,23.69
2017-07-03T17:54:13.066Z,23.69
2017-07-03T17:54:53.620Z,23.69
2017-07-03T17:55:34.179Z,23.7
2017-07-03T17:56:14.708Z,23.75
2017-07-03T17:56:55.247Z,23.75
2017-07-03T17:57:35.773Z,23.73
2017-07-03T17:58:16.337Z,23.78
2017-07-03T17:58:56.864Z,23.73
2017-07-03T17:59:37.404Z,23.73
2017-07-03T18:00:17.964Z,23.76
2017-07-03T18:00:58.513Z,23.85
2017-07-03T18:01:39.072Z,23.75
2017-07-03T18:02:19.616Z,23.68
2017-07-03T18:03:00.155Z,23.7
2017-07-03T18:03:40.705Z,23.65
2017-07-03T18:04:21.247Z,23.57
2017-07-03T18:05:01.796Z,23.61
2017-07-03T18:05:42.352Z,23.53
2017-07-03T18:06:22.886Z,23.46
2017-07-03T18:07:03.437Z,23.5
2017-07-03T18:07:43.983Z,23.43
2017-07-03T18:08:24.526Z,23.42
2017-07-03T18:09:05.070Z,23.38
2017-07-03T18:09:45.704Z,23.42
2017-07-03T18:10:26.239Z,23.39
2017-07-03T18:11:06.789Z,23.31
2017-07-03T18:11:47.638Z,23.32
2017-07-03T18:12:28.205Z,23.23
2017-07-03T18:13:08.764Z,23.22
2017-07-03T18:13:49.315Z,23.2
2017-07-03T18:14:29.859Z,23.25
2017-07-03T18:15:10.405Z,23.19
2017-07-03T18:15:50.943Z,23.19
2017-07-03T18:16:31.505Z,23.23
2017-07-03T18:17:12.075Z,23.17
2017-07-03T18:17:52.588Z,23.1
2017-07-03T18:18:33.131Z,23.19
2017-07-03T18:19:13.696Z,23.12
2017-07-03T18:19:54.239Z,23.16
2017-07-03T18:20:34.788Z,23.13
2017-07-03T18:21:15.347Z,23.15
2017-07-03T18:21:55.893Z,23.12
2017-07-03T18:22:36.449Z,23.16
2017-07-03T18:23:16.995Z,23.13
2017-07-03T18:23:57.550Z,23.17
2017-07-03T18:24:38.086Z,23.23
2017-07-03T18:25:18.629Z,23.23
2017-07-03T18:25:59.168Z,23.17
2017-07-03T18:26:39.721Z,23.15
2017-07-03T18:27:20.272Z,23.23
2017-07-03T18:28:00.814Z,23.16
2017-07-03T18:28:41.359Z,23.15
2017-07-03T18:29:21.908Z,23.2
2017-07-03T18:30:02.451Z,23.22
2017-07-03T18:30:42.994Z,23.17
2017-07-03T18:31:23.540Z,23.2
2017-07-03T18:32:04.090Z,23.2
2017-07-03T18:32:44.636Z,23.15
2017-07-03T18:33:25.219Z,23.16
2017-07-03T18:34:05.784Z,23.17
2017-07-03T18:34:46.333Z,23.13
2017-07-03T18:35:26.875Z,23.15
2017-07-03T18:36:07.421Z,23.16
2017-07-03T18:36:47.965Z,23.16
2017-07-03T18:37:28.510Z,23.17
2017-07-03T18:38:09.044Z,23.13
2017-07-03T18:38:49.601Z,23.15
2017-07-03T18:39:30.149Z,23.1
2017-07-03T18:40:10.685Z,23.05
2017-07-03T18:40:51.226Z,23.09
2017-07-03T18:41:31.773Z,23.09
2017-07-03T18:42:12.318Z,23.01
2017-07-03T18:42:52.866Z,23.04
2017-07-03T18:43:33.429Z,22.98
2017-07-03T18:44:13.973Z,23.05
2017-07-03T18:44:54.524Z,23.02
2017-07-03T18:45:35.080Z,22.97
2017-07-03T18:46:15.618Z,22.95
2017-07-03T18:46:56.162Z,22.92
2017-07-03T18:47:36.710Z,22.92
2017-07-03T18:48:17.256Z,22.92
2017-07-03T18:48:57.803Z,22.82
2017-07-03T18:49:38.354Z,22.75
2017-07-03T18:50:18.899Z,22.79
2017-07-03T18:50:59.451Z,22.75
2017-07-03T18:51:39.992Z,22.76
2017-07-03T18:52:20.557Z,22.73
2017-07-03T18:53:01.094Z,22.68
2017-07-03T18:53:41.627Z,22.64
2017-07-03T18:54:22.206Z,22.6
2017-07-03T18:55:02.738Z,22.61
2017-07-03T18:55:43.273Z,22.52
2017-07-03T18:56:23.824Z,22.54
2017-07-03T18:57:04.363Z,22.54
2017-07-03T18:57:44.908Z,22.54
2017-07-03T18:58:25.457Z,22.49
2017-07-03T18:59:06.038Z,22.49
2017-07-03T18:59:46.565Z,22.49
2017-07-03T19:00:27.128Z,22.49
2017-07-03T19:01:07.667Z,22.49
2017-07-03T19:01:48.217Z,22.47
2017-07-03T19:02:28.783Z,22.45
2017-07-03T19:03:09.303Z,22.46
2017-07-03T19:03:49.849Z,22.46
2017-07-03T19:04:30.402Z,22.47
2017-07-03T19:05:10.949Z,22.47
2017-07-03T19:05:51.474Z,22.39
2017-07-03T19:06:32.023Z,22.39
2017-07-03T19:07:12.569Z,22.47
2017-07-03T19:07:53.094Z,22.42
2017-07-03T19:08:33.636Z,22.42
2017-07-03T19:09:14.169Z,22.36
2017-07-03T19:09:54.709Z,22.43
2017-07-03T19:10:35.251Z,22.35
2017-07-03T19:11:15.790Z,22.37
2017-07-03T19:11:56.332Z,22.31
2017-07-03T19:12:36.878Z,22.4
2017-07-03T19:13:17.413Z,22.4
2017-07-03T19:13:57.956Z,22.36
2017-07-03T19:14:38.506Z,22.35
2017-07-03T19:15:19.044Z,22.37
2017-07-03T19:15:59.633Z,22.28
2017-07-03T19:16:40.164Z,22.36
2017-07-03T19:17:20.708Z,22.31
2017-07-03T19:18:01.257Z,22.3
2017-07-03T19:18:41.799Z,22.27
2017-07-03T19:19:22.348Z,22.22
2017-07-03T19:20:02.889Z,22.22
2017-07-03T19:20:43.413Z,22.18
2017-07-03T19:21:23.972Z,22.22
2017-07-03T19:22:04.519Z,22.17
2017-07-03T19:22:45.068Z,22.12
2017-07-03T19:23:25.618Z,22.09
2017-07-03T19:24:06.167Z,22.03
2017-07-03T19:24:46.727Z,21.99
2017-07-03T19:25:27.267Z,22.02
2017-07-03T19:26:07.842Z,21.94
2017-07-03T19:26:48.376Z,21.91
2017-07-03T19:27:28.914Z,21.84
2017-07-03T19:28:09.458Z,21.96
2017-07-03T19:28:50.007Z,21.83
2017-07-03T19:29:30.560Z,21.77
2017-07-03T19:30:11.108Z,21.79
2017-07-03T19:30:51.661Z,21.69
2017-07-03T19:31:32.206Z,21.74
2017-07-03T19:32:12.757Z,21.74
2017-07-03T19:32:53.334Z,21.72
2017-07-03T19:33:33.886Z,21.72
2017-07-03T19:34:14.423Z,21.64
2017-07-03T19:34:54.968Z,21.69
2017-07-03T19:35:35.506Z,21.72
2017-07-03T19:36:16.055Z,21.69
2017-07-03T19:36:56.598Z,21.61
2017-07-03T19:37:37.127Z,21.72
2017-07-03T19:38:17.665Z,21.53
2017-07-03T19:38:58.221Z,21.58
2017-07-03T19:39:38.769Z,21.53
2017-07-03T19:40:19.305Z,21.58
2017-07-03T19:40:59.851Z,21.54
2017-07-03T19:41:40.403Z,21.49
2017-07-03T19:42:20.953Z,21.59
2017-07-03T19:43:01.500Z,21.54
2017-07-03T19:43:42.055Z,21.54
2017-07-03T19:44:22.775Z,21.52
2017-07-03T19:45:03.741Z,21.49
2017-07-03T19:45:46.352Z,21.49
2017-07-03T19:46:28.110Z,21.44
2017-07-03T19:47:09.236Z,21.43
2017-07-03T19:47:49.883Z,21.44
2017-07-03T19:48:31.458Z,21.49
2017-07-03T19:49:13.298Z,21.44
2017-07-03T19:49:55.366Z,21.31
2017-07-03T19:50:36.357Z,21.31
2017-07-03T19:51:18.072Z,21.4
2017-07-03T19:51:58.791Z,21.31
2017-07-03T19:52:39.732Z,21.34
2017-07-03T19:53:20.732Z,21.32
2017-07-03T19:54:07.299Z,21.27
2017-07-03T19:54:48.749Z,21.25
2017-07-03T19:55:29.836Z,21.22
2017-07-03T19:56:10.653Z,21.22
2017-07-03T19:56:51.732Z,21.19
2017-07-03T19:57:32.381Z,21.14
2017-07-03T19:58:13.713Z,21.09
2017-07-03T19:58:55.052Z,21.1
2017-07-03T19:59:35.843Z,21.14
2017-07-03T20:00:16.829Z,21.06
2017-07-03T20:00:58.017Z,21.14
2017-07-03T20:01:38.696Z,20.99
2017-07-03T20:02:19.247Z,20.97
2017-07-03T20:02:59.795Z,20.94
2017-07-03T20:03:40.360Z,20.99
2017-07-03T20:04:20.895Z,21.01
2017-07-03T20:05:01.443Z,20.95
2017-07-03T20:05:41.998Z,20.89
2017-07-03T20:06:22.544Z,20.97
2017-07-03T20:07:03.109Z,20.99
2017-07-03T20:07:43.652Z,20.92
2017-07-03T20:08:24.219Z,20.89
2017-07-03T20:09:04.748Z,20.95
2017-07-03T20:09:45.299Z,20.94
2017-07-03T20:10:25.833Z,20.94
2017-07-03T20:11:06.379Z,20.94
2017-07-03T20:11:46.928Z,20.85
2017-07-03T20:13:46.189Z,20.94
2017-07-03T20:14:26.719Z,20.84
2017-07-03T20:15:07.253Z,20.8
2017-07-03T20:15:47.806Z,20.82
2017-07-03T20:16:28.373Z,20.79
2017-07-03T20:17:08.899Z,20.74
2017-07-03T20:17:49.447Z,20.72
2017-07-03T20:18:30.019Z,20.76
2017-07-03T20:19:10.568Z,20.79
2017-07-03T20:19:51.106Z,20.72
2017-07-03T20:20:31.660Z,20.72
2017-07-03T20:21:12.216Z,20.73
2017-07-03T20:21:52.741Z,20.67
2017-07-03T20:22:33.278Z,20.62
2017-07-03T20:23:13.819Z,20.67
2017-07-03T20:23:54.347Z,20.67
2017-07-03T20:24:34.886Z,20.62
2017-07-03T20:25:15.467Z,20.66
2017-07-03T20:25:55.980Z,20.59
2017-07-03T20:26:36.510Z,20.61
2017-07-03T20:27:17.057Z,20.66
2017-07-03T20:27:57.598Z,20.58
2017-07-03T20:28:38.141Z,20.59
2017-07-03T20:29:18.675Z,20.58
2017-07-03T20:29:59.215Z,20.58
2017-07-03T20:30:39.754Z,20.54
2017-07-03T20:31:20.301Z,20.59
2017-07-03T20:32:00.844Z,20.58
2017-07-03T20:32:41.389Z,20.57
2017-07-03T20:33:21.952Z,20.55
2017-07-03T20:34:02.475Z,20.5
2017-07-03T20:34:43.024Z,20.54
2017-07-03T20:35:23.566Z,20.57
2017-07-03T20:36:04.268Z,20.54
2017-07-03T20:36:44.792Z,20.47
2017-07-03T20:37:25.342Z,20.47
2017-07-03T20:38:05.880Z,20.48
2017-07-03T20:38:46.415Z,20.48
2017-07-03T20:39:26.960Z,20.43
2017-07-03T20:40:07.507Z,20.41
2017-07-03T20:40:48.060Z,20.42
2017-07-03T20:41:28.607Z,20.29
2017-07-03T20:42:09.175Z,20.26
2017-07-03T20:42:49.683Z,20.31
2017-07-03T20:43:30.221Z,20.31
2017-07-03T20:44:10.763Z,20.29
2017-07-03T20:44:51.301Z,20.24
2017-07-03T20:45:31.849Z,20.18
2017-07-03T20:46:12.388Z,20.2
2017-07-03T20:46:52.976Z,20.16
2017-07-03T20:47:33.520Z,20.13
2017-07-03T20:48:14.067Z,20.16
2017-07-03T20:48:54.648Z,20.14
2017-07-03T20:49:35.156Z,20.1
2017-07-03T20:50:15.810Z,20.1
2017-07-03T20:50:56.399Z,20.03
2017-07-03T20:51:36.934Z,19.99
2017-07-03T20:52:17.478Z,20.08
2017-07-03T20:52:58.029Z,19.99
2017-07-03T20:53:38.564Z,20.05
2017-07-03T20:54:19.156Z,19.99
2017-07-03T20:54:59.814Z,19.99
2017-07-03T20:55:40.391Z,20.01
2017-07-03T20:56:20.931Z,19.99
2017-07-03T20:57:01.470Z,20.03
2017-07-03T20:57:41.998Z,19.98
2017-07-03T20:58:22.543Z,20.1
2017-07-03T20:59:03.094Z,20.05
2017-07-03T20:59:43.634Z,20.02
2017-07-03T21:00:24.179Z,19.99
2017-07-03T21:01:04.727Z,19.99
2017-07-03T21:01:45.253Z,20.02
2017-07-03T21:02:25.786Z,19.99
2017-07-03T21:03:06.452Z,20.05
2017-07-03T21:03:47.031Z,19.99
2017-07-03T21:04:27.607Z,20.01
2017-07-03T21:05:08.151Z,19.98
2017-07-03T21:05:48.685Z,20.02
2017-07-03T21:06:29.236Z,20.01
2017-07-03T21:07:09.763Z,20.01
2017-07-03T21:07:50.301Z,19.98
2017-07-03T21:08:30.839Z,19.99
2017-07-03T21:09:11.386Z,20.01
2017-07-03T21:09:51.932Z,19.99
2017-07-03T21:10:32.469Z,19.87